createdAt,value
2023-04-02T00:05:32.049Z,13.60
2023-04-02T00:08:41.165Z,15.50
2023-04-02T00:11:48.768Z,15.70
2023-04-02T00:14:55.451Z,13.70
2023-04-02T00:18:00.429Z,13.90
2023-04-02T00:21:11.796Z,14.00
2023-04-02T00:24:18.215Z,14.10
2023-04-02T00:27:22.158Z,14.20
2023-04-02T00:30:25.967Z,13.60
2023-04-02T00:33:32.342Z,13.90
2023-04-02T00:36:37.003Z,14.10
2023-04-02T00:39:43.377Z,14.40
2023-04-02T00:42:49.032Z,14.30
2023-04-02T00:45:57.270Z,13.60
2023-04-02T00:49:10.956Z,13.90
2023-04-02T00:52:18.895Z,14.00
2023-04-02T00:55:25.627Z,14.90
2023-04-02T00:58:34.244Z,14.10
2023-04-02T01:01:42.942Z,14.60
2023-04-02T01:04:55.220Z,15.30
2023-04-02T01:08:26.120Z,14.60
2023-04-02T01:11:57.884Z,15.00
2023-04-02T01:15:53.039Z,14.40
2023-04-02T01:19:26.401Z,13.90
2023-04-02T01:23:09.833Z,13.40
2023-04-02T01:26:13.335Z,14.20
2023-04-02T01:29:30.973Z,14.60
2023-04-02T01:32:35.140Z,14.40
2023-04-02T01:35:44.800Z,13.90
2023-04-02T01:39:03.293Z,13.80
2023-04-02T01:42:13.564Z,13.00
2023-04-02T01:45:19.771Z,14.80
2023-04-02T01:48:30.400Z,14.00
2023-04-02T01:51:39.820Z,14.30
2023-04-02T01:54:44.761Z,13.50
2023-04-02T01:57:52.137Z,14.10
2023-04-02T02:04:55.092Z,14.50
2023-04-02T02:08:01.656Z,14.00
2023-04-02T02:11:11.992Z,14.00
2023-04-02T02:14:23.270Z,15.30
2023-04-02T02:17:35.027Z,14.80
2023-04-02T02:20:38.412Z,14.70
2023-04-02T02:23:43.433Z,14.40
2023-04-02T02:26:52.207Z,14.30
2023-04-02T02:30:06.408Z,15.40
2023-04-02T02:33:22.492Z,15.80
2023-04-02T02:36:47.116Z,14.60
2023-04-02T02:39:58.603Z,15.00
2023-04-02T02:43:06.479Z,14.00
2023-04-02T02:46:16.712Z,15.10
2023-04-02T02:49:27.920Z,14.10
2023-04-02T02:52:35.314Z,15.20
2023-04-02T02:55:42.293Z,15.00
2023-04-02T02:58:53.170Z,15.50
2023-04-02T03:02:02.721Z,15.30
2023-04-02T03:05:07.732Z,15.20
2023-04-02T03:08:20.672Z,15.10
2023-04-02T03:11:27.354Z,15.00
2023-04-02T03:14:49.081Z,15.60
2023-04-02T03:18:34.488Z,15.20
2023-04-02T03:21:49.040Z,14.70
2023-04-02T03:24:58.009Z,14.70
2023-04-02T03:28:06.243Z,15.00
2023-04-02T03:31:32.753Z,15.50
2023-04-02T03:34:57.961Z,14.60
2023-04-02T03:38:22.312Z,14.20
2023-04-02T03:41:46.904Z,15.00
2023-04-02T03:45:20.415Z,14.90
2023-04-02T03:48:34.261Z,13.30
2023-04-02T03:51:55.667Z,13.80
2023-04-02T03:55:02.353Z,13.30
2023-04-02T03:58:43.462Z,13.30
2023-04-02T04:04:56.586Z,12.60
2023-04-02T04:08:16.277Z,13.60
2023-04-02T04:11:24.984Z,13.70
2023-04-02T04:14:32.529Z,14.40
2023-04-02T04:18:03.495Z,15.80
2023-04-02T04:21:38.005Z,13.80
2023-04-02T04:28:19.369Z,13.40
2023-04-02T04:31:34.124Z,14.40
2023-04-02T04:34:51.739Z,14.70
2023-04-02T04:38:07.860Z,15.80
2023-04-02T04:41:21.607Z,17.10
2023-04-02T04:44:39.859Z,16.80
2023-04-02T04:47:57.879Z,16.40
2023-04-02T04:51:17.681Z,16.20
2023-04-02T04:54:26.818Z,16.00
2023-04-02T04:57:38.714Z,17.10
2023-04-02T05:01:04.570Z,15.90
2023-04-02T05:04:17.731Z,15.50
2023-04-02T05:07:36.225Z,16.30
2023-04-02T05:10:43.112Z,15.20
2023-04-02T05:13:58.376Z,13.70
2023-04-02T05:17:14.881Z,15.80
2023-04-02T05:20:32.020Z,13.80
2023-04-02T05:23:51.483Z,12.40
2023-04-02T05:27:02.303Z,12.90
2023-04-02T05:30:38.731Z,13.30
2023-04-02T05:33:47.919Z,11.50
2023-04-02T05:36:52.112Z,12.60
2023-04-02T05:40:06.489Z,13.00
2023-04-02T05:43:18.409Z,13.60
2023-04-02T05:46:28.211Z,13.00
2023-04-02T05:49:43.115Z,12.30
2023-04-02T05:52:53.734Z,13.10
2023-04-02T05:56:07.988Z,14.80
2023-04-02T05:59:21.790Z,13.40
2023-04-02T06:05:18.726Z,13.50
2023-04-02T06:08:31.096Z,13.30
2023-04-02T06:11:45.373Z,12.90
2023-04-02T06:14:54.810Z,13.30
2023-04-02T06:18:23.935Z,12.40
2023-04-02T06:21:28.528Z,12.30
2023-04-02T06:24:31.446Z,12.80
2023-04-02T06:27:37.402Z,12.30
2023-04-02T06:30:43.184Z,12.20
2023-04-02T06:33:51.887Z,11.80
2023-04-02T06:37:00.804Z,12.50
2023-04-02T06:40:18.608Z,12.40
2023-04-02T06:43:33.050Z,12.30
2023-04-02T06:50:27.784Z,11.50
2023-04-02T06:53:53.403Z,13.30
2023-04-02T06:56:56.313Z,11.50
2023-04-02T07:00:29.545Z,11.60
2023-04-02T07:03:54.467Z,11.00
2023-04-02T07:07:02.630Z,10.80
2023-04-02T07:10:09.885Z,10.90
2023-04-02T07:13:19.154Z,10.60
2023-04-02T07:16:26.527Z,11.10
2023-04-02T07:19:29.433Z,11.70
2023-04-02T07:22:33.355Z,10.80
2023-04-02T07:25:37.536Z,10.10
2023-04-02T07:28:40.047Z,11.60
2023-04-02T07:31:43.785Z,10.80
2023-04-02T07:34:46.739Z,11.20
2023-04-02T07:37:49.789Z,9.80
2023-04-02T07:40:52.041Z,11.10
2023-04-02T07:43:58.834Z,10.70
2023-04-02T07:47:02.850Z,10.20
2023-04-02T07:50:06.209Z,10.30
2023-04-02T07:53:29.340Z,10.00
2023-04-02T07:56:32.139Z,10.00
2023-04-02T07:59:36.146Z,9.60
2023-04-02T08:02:40.920Z,9.20
2023-04-02T08:05:43.218Z,9.60
